Airfield :
LOGIN :

Register | Disclaimer

   EN    FR    IT 

 










Legend :    VFR   Marginal VFR   IFR   Intensive IFR   Very Intensive IFR
Visi :
Ceiling :
>= 8 km
>= 3000ft
5 to 8 km
1000 to 3000 ft
1500m to 5 km
500 to 1000 ft
800 to 1500m
200 to 500 ft
< 800m
< 200 ft
Symbols :   Thunderstorms  Fog  Heavy snow  Heavy precipitations  Wind > 20 kt
SIGMETs :     Misc.  Thunderstorms  Icing  Turbulence  Mountain Waves  Volcanic Ashes







- Airport Elevation : 146 ft
- IATA code : RKE


EKRK - Roskilde Tune

CURRENT METAR :
  • 160350Z AUTO 24002KT 9999 FEW024/// BKN034/// BKN100/// 12/11 Q1011

EXPIRED METARs :
  • 160320Z AUTO 00000KT 9999 BKN033/// OVC100/// 12/11 Q1011
  • 160250Z AUTO 18001KT 8000 SCT031/// BKN100/// 11/11 Q1011
  • 160220Z AUTO 29002KT 8000 BKN029/// 11/10 Q1011
  • 160150Z AUTO 28004KT 7000 BKN029/// 11/10 Q1011
  • 160120Z AUTO 25003KT 9999 NCD 11/10 Q1011
  • 160050Z AUTO 27002KT 9999 NCD 11/10 Q1011

TAF TAF EKRK
Valid from the 16 at 03:00 until the 16 at 12:00 UTC


160220Z 1603/1612 28005KT 9999 BKN020
No reported NOTAMs for that airfield.



MET'MAP, your aeronautical weather chart ! - Copyright ORBIFLY December 2007 - Disclaimer

ORBIFLY MET'MAP TEAM :

Programming & Development : Alexandra Zaïnal
Concept & Development : Baudouin d'Aumeries
Co-Development & Prog : Marc-Olivier Méhu
Technical & hardware support : Manuel Goepfert

Contact : metmap@orbifly.com




SOURCES & CREDITS :

   NOAA